createdAt,value
2022-11-18T00:00:07.876Z,47.37
2022-11-18T00:01:07.851Z,48.50
2022-11-18T00:02:07.987Z,48.18
2022-11-18T00:03:07.865Z,48.66
2022-11-18T00:04:07.846Z,49.47
2022-11-18T00:05:07.803Z,48.98
2022-11-18T00:06:07.805Z,45.92
2022-11-18T00:07:07.823Z,46.25
2022-11-18T00:08:07.773Z,45.12
2022-11-18T00:09:07.792Z,46.57
2022-11-18T00:10:07.770Z,44.15
2022-11-18T00:11:07.732Z,46.41
2022-11-18T00:12:07.741Z,46.89
2022-11-18T00:13:07.757Z,43.34
2022-11-18T00:14:07.718Z,43.02
2022-11-18T00:15:07.719Z,45.76
2022-11-18T00:16:07.691Z,43.51
2022-11-18T00:17:07.670Z,44.31
2022-11-18T00:18:07.702Z,44.63
2022-11-18T00:19:07.681Z,43.99
2022-11-18T00:20:07.649Z,43.51
2022-11-18T00:21:07.658Z,43.18
2022-11-18T00:22:07.631Z,43.18
2022-11-18T00:23:07.616Z,45.92
2022-11-18T00:24:40.068Z,45.12
2022-11-18T00:25:07.609Z,48.02
2022-11-18T00:26:07.634Z,46.08
2022-11-18T00:27:07.612Z,46.73
2022-11-18T00:28:07.589Z,47.21
2022-11-18T00:29:07.593Z,47.21
2022-11-18T00:30:07.587Z,48.50
2022-11-18T00:31:07.534Z,46.41
2022-11-18T00:32:07.549Z,47.21
2022-11-18T00:33:07.549Z,46.73
2022-11-18T00:34:07.531Z,47.21
2022-11-18T00:35:07.510Z,47.53
2022-11-18T00:36:07.484Z,47.70
2022-11-18T00:37:07.523Z,46.41
2022-11-18T00:38:07.464Z,45.28
2022-11-18T00:39:07.502Z,47.86
2022-11-18T00:40:07.465Z,47.70
2022-11-18T00:41:07.439Z,45.76
2022-11-18T00:42:07.418Z,45.92
2022-11-18T00:43:07.394Z,45.12
2022-11-18T00:44:09.621Z,46.73
2022-11-18T00:45:08.387Z,45.28
2022-11-18T00:46:07.384Z,44.96
2022-11-18T00:47:07.363Z,45.76
2022-11-18T00:48:07.380Z,49.15
2022-11-18T00:49:07.372Z,47.05
2022-11-18T00:50:07.353Z,44.47
2022-11-18T00:51:07.372Z,42.22
2022-11-18T00:52:07.320Z,43.02
2022-11-18T00:53:07.313Z,43.67
2022-11-18T00:54:07.330Z,48.02
2022-11-18T00:55:07.304Z,43.83
2022-11-18T00:56:07.306Z,43.51
2022-11-18T00:57:07.291Z,44.15
2022-11-18T00:58:07.302Z,44.31
2022-11-18T00:59:07.274Z,43.02
2022-11-18T01:00:07.233Z,41.25
2022-11-18T01:01:07.358Z,41.41
2022-11-18T01:02:07.189Z,42.22
2022-11-18T01:03:07.196Z,40.77
2022-11-18T01:04:07.217Z,41.73
2022-11-18T01:05:07.186Z,43.51
2022-11-18T01:06:07.175Z,45.28
2022-11-18T01:07:07.244Z,43.67
2022-11-18T01:08:07.156Z,42.86
2022-11-18T01:09:07.145Z,42.54
2022-11-18T01:10:07.125Z,42.06
2022-11-18T01:11:07.114Z,42.54
2022-11-18T01:12:07.144Z,42.06
2022-11-18T01:13:07.096Z,44.47
2022-11-18T01:14:07.091Z,44.15
2022-11-18T01:15:07.078Z,42.06
2022-11-18T01:16:07.113Z,41.57
2022-11-18T01:17:08.064Z,47.21
2022-11-18T01:18:07.087Z,42.06
2022-11-18T01:19:07.007Z,43.99
2022-11-18T01:20:07.038Z,43.18
2022-11-18T01:21:07.006Z,43.02
2022-11-18T01:22:07.013Z,45.76
2022-11-18T01:23:06.978Z,42.22
2022-11-18T01:24:06.965Z,42.70
2022-11-18T01:25:06.987Z,46.57
2022-11-18T01:26:06.934Z,43.67
2022-11-18T01:27:06.923Z,43.67
2022-11-18T01:28:06.950Z,45.76
2022-11-18T01:29:06.908Z,43.99
2022-11-18T01:30:06.916Z,45.12
2022-11-18T01:31:06.910Z,43.83
2022-11-18T01:32:23.845Z,42.06
2022-11-18T01:33:08.881Z,42.38
2022-11-18T01:34:06.851Z,43.51
2022-11-18T01:35:06.898Z,43.02
2022-11-18T01:36:06.851Z,41.89
2022-11-18T01:37:06.826Z,42.22
2022-11-18T01:38:06.809Z,43.02
2022-11-18T01:39:06.800Z,41.09
2022-11-18T01:40:06.802Z,41.09
2022-11-18T01:41:06.822Z,41.25
2022-11-18T01:42:06.786Z,40.77
2022-11-18T01:43:06.795Z,41.57
2022-11-18T01:44:06.745Z,45.92
2022-11-18T01:45:06.736Z,46.57
2022-11-18T01:46:06.747Z,41.41
2022-11-18T01:47:06.737Z,40.44
2022-11-18T01:48:06.708Z,40.28
2022-11-18T01:49:06.716Z,40.93
2022-11-18T01:50:06.682Z,41.25
2022-11-18T01:51:06.681Z,43.83
2022-11-18T01:52:06.706Z,43.67
2022-11-18T01:53:06.647Z,41.41
2022-11-18T01:54:06.675Z,45.28
2022-11-18T01:55:06.618Z,41.25
2022-11-18T01:56:06.665Z,41.25
2022-11-18T01:57:06.606Z,42.70
2022-11-18T01:58:06.641Z,39.32
2022-11-18T01:59:06.609Z,41.09
2022-11-18T02:00:06.564Z,40.77
2022-11-18T02:01:06.623Z,42.86
2022-11-18T02:02:06.603Z,43.67
2022-11-18T02:03:06.592Z,41.89
2022-11-18T02:04:06.568Z,42.70
2022-11-18T02:05:06.523Z,41.25
2022-11-18T02:06:06.527Z,41.25
2022-11-18T02:07:06.535Z,41.89
2022-11-18T02:08:07.481Z,41.57
2022-11-18T02:09:06.497Z,42.38
2022-11-18T02:10:06.466Z,42.06
2022-11-18T02:11:06.495Z,41.89
2022-11-18T02:12:06.482Z,43.34
2022-11-18T02:13:06.454Z,41.73
2022-11-18T02:14:06.438Z,40.77
2022-11-18T02:15:06.440Z,46.41
2022-11-18T02:16:06.444Z,43.02
2022-11-18T02:17:06.397Z,42.38
2022-11-18T02:18:06.398Z,44.31
2022-11-18T02:19:06.368Z,43.83
2022-11-18T02:20:06.385Z,42.86
2022-11-18T02:21:06.359Z,42.38
2022-11-18T02:22:06.377Z,42.06
2022-11-18T02:23:06.349Z,42.06
2022-11-18T02:24:06.311Z,43.67
2022-11-18T02:25:06.329Z,44.31
2022-11-18T02:26:06.285Z,42.86
2022-11-18T02:27:06.288Z,41.57
2022-11-18T02:28:06.262Z,41.09
2022-11-18T02:29:06.282Z,41.89
2022-11-18T02:30:06.259Z,45.28
2022-11-18T02:31:06.247Z,45.76
2022-11-18T02:32:06.255Z,42.70
2022-11-18T02:33:06.250Z,41.89
2022-11-18T02:34:06.224Z,43.34
2022-11-18T02:35:06.199Z,42.70
2022-11-18T02:36:06.216Z,42.06
2022-11-18T02:37:06.196Z,42.86
2022-11-18T02:38:06.196Z,43.18
2022-11-18T02:39:06.151Z,42.06
2022-11-18T02:40:06.168Z,41.57
2022-11-18T02:41:06.144Z,44.79
2022-11-18T02:42:07.223Z,46.08
2022-11-18T02:43:06.106Z,43.67
2022-11-18T02:44:06.119Z,41.89
2022-11-18T02:45:06.093Z,46.57
2022-11-18T02:46:06.071Z,41.25
2022-11-18T02:47:06.097Z,40.12
2022-11-18T02:48:06.072Z,40.44
2022-11-18T02:49:06.046Z,41.41
2022-11-18T02:50:06.033Z,43.18
2022-11-18T02:51:06.017Z,46.57
2022-11-18T02:52:06.005Z,47.05
2022-11-18T02:53:06.021Z,45.28
2022-11-18T02:54:05.991Z,40.77
2022-11-18T02:55:05.992Z,42.06
2022-11-18T02:56:05.963Z,41.89
2022-11-18T02:57:05.961Z,42.54
2022-11-18T02:58:05.966Z,48.82
2022-11-18T02:59:05.951Z,44.63
2022-11-18T03:00:05.933Z,40.93
2022-11-18T03:01:05.961Z,41.25
2022-11-18T03:02:05.939Z,42.86
2022-11-18T03:03:05.938Z,44.96
2022-11-18T03:04:05.857Z,42.06
2022-11-18T03:05:06.922Z,41.89
2022-11-18T03:06:05.884Z,40.77
2022-11-18T03:07:06.069Z,41.25
2022-11-18T03:08:05.856Z,43.83
2022-11-18T03:09:05.822Z,41.09
2022-11-18T03:10:05.836Z,41.09
2022-11-18T03:11:05.830Z,42.70
2022-11-18T03:12:05.798Z,42.70
2022-11-18T03:13:05.788Z,41.57
2022-11-18T03:14:05.758Z,42.38
2022-11-18T03:15:05.770Z,42.54
2022-11-18T03:16:05.750Z,43.18
2022-11-18T03:17:05.776Z,41.41
2022-11-18T03:18:05.711Z,43.02
2022-11-18T03:19:05.712Z,41.73
2022-11-18T03:20:05.699Z,43.67
2022-11-18T03:21:05.687Z,43.99
2022-11-18T03:22:05.716Z,42.22
2022-11-18T03:23:05.656Z,42.54
2022-11-18T03:24:05.665Z,40.93
2022-11-18T03:25:05.646Z,41.25
2022-11-18T03:26:05.646Z,45.12
2022-11-18T03:27:05.628Z,41.41
2022-11-18T03:28:05.619Z,41.09
2022-11-18T03:29:05.608Z,47.05
2022-11-18T03:30:05.585Z,44.31
2022-11-18T03:31:05.580Z,46.73
2022-11-18T03:32:05.575Z,44.96
2022-11-18T03:33:05.545Z,44.15
2022-11-18T03:34:05.590Z,49.63
2022-11-18T03:35:05.546Z,44.15
2022-11-18T03:36:05.543Z,47.53
2022-11-18T03:37:10.216Z,42.70
2022-11-18T03:38:07.518Z,41.57
2022-11-18T03:39:05.538Z,41.57
2022-11-18T03:40:05.486Z,43.67
2022-11-18T03:41:05.469Z,49.95
2022-11-18T03:42:05.470Z,43.51
2022-11-18T03:43:05.465Z,45.60
2022-11-18T03:44:05.440Z,44.31
2022-11-18T03:45:05.461Z,44.79
2022-11-18T03:46:05.418Z,43.83
2022-11-18T03:47:05.429Z,49.31
2022-11-18T03:48:05.393Z,46.57
2022-11-18T03:49:05.399Z,46.73
2022-11-18T03:50:05.401Z,47.05
2022-11-18T03:51:05.398Z,46.41
2022-11-18T03:52:05.372Z,49.79
2022-11-18T03:53:05.361Z,46.73
2022-11-18T03:54:05.356Z,46.73
2022-11-18T03:55:05.337Z,47.21
2022-11-18T03:56:05.337Z,45.92
2022-11-18T03:57:05.298Z,47.70
2022-11-18T03:58:05.311Z,44.15
2022-11-18T03:59:05.299Z,46.57
2022-11-18T04:00:05.292Z,46.25
2022-11-18T04:01:05.259Z,44.47
2022-11-18T04:02:05.454Z,44.15
2022-11-18T04:03:05.264Z,48.18
2022-11-18T04:04:05.243Z,45.60
2022-11-18T04:05:05.222Z,50.43
2022-11-18T04:06:05.213Z,44.47
2022-11-18T04:07:05.305Z,43.51
2022-11-18T04:08:05.189Z,51.08
2022-11-18T04:09:05.172Z,44.47
2022-11-18T04:10:05.189Z,49.47
2022-11-18T04:11:05.204Z,46.73
2022-11-18T04:12:05.170Z,53.33
2022-11-18T04:13:06.685Z,50.27
2022-11-18T04:14:06.129Z,51.24
2022-11-18T04:15:05.134Z,48.82
2022-11-18T04:16:05.103Z,49.47
2022-11-18T04:17:05.092Z,48.34
2022-11-18T04:18:05.112Z,49.15
2022-11-18T04:19:17.762Z,48.02
2022-11-18T04:20:07.058Z,49.95
2022-11-18T04:21:05.044Z,49.95
2022-11-18T04:22:05.066Z,47.53
2022-11-18T04:23:05.023Z,54.46
2022-11-18T04:24:05.013Z,54.30
2022-11-18T04:25:05.016Z,48.34
2022-11-18T04:26:05.006Z,48.02
2022-11-18T04:27:05.008Z,47.86
2022-11-18T04:28:04.967Z,50.92
2022-11-18T04:29:04.975Z,51.72
2022-11-18T04:30:04.963Z,49.31
2022-11-18T04:31:04.966Z,47.05
2022-11-18T04:32:04.938Z,49.95
2022-11-18T04:33:04.923Z,50.11
2022-11-18T04:34:04.887Z,52.05
2022-11-18T04:35:04.916Z,51.56
2022-11-18T04:36:04.903Z,51.40
2022-11-18T04:37:04.903Z,48.34
2022-11-18T04:38:05.266Z,51.88
2022-11-18T04:39:05.826Z,51.08
2022-11-18T04:40:05.855Z,54.14
2022-11-18T04:41:04.847Z,53.82
2022-11-18T04:42:04.819Z,51.24
2022-11-18T04:43:04.834Z,49.63
2022-11-18T04:44:04.804Z,49.47
2022-11-18T04:45:04.800Z,53.50
2022-11-18T04:46:04.802Z,49.79
2022-11-18T04:47:04.754Z,53.66
2022-11-18T04:48:04.742Z,50.43
2022-11-18T04:49:04.754Z,53.01
2022-11-18T04:50:04.768Z,54.14
2022-11-18T04:51:04.744Z,54.46
2022-11-18T04:52:04.717Z,53.98
2022-11-18T04:53:04.697Z,52.85
2022-11-18T04:54:04.678Z,54.30
2022-11-18T04:55:04.684Z,51.08
2022-11-18T04:56:04.676Z,53.01
2022-11-18T04:57:04.664Z,50.11
2022-11-18T04:58:04.629Z,51.56
2022-11-18T04:59:05.655Z,53.66
2022-11-18T05:00:04.604Z,51.24
2022-11-18T05:01:04.635Z,52.05
2022-11-18T05:02:04.615Z,53.50
2022-11-18T05:03:04.613Z,50.92
2022-11-18T05:04:04.598Z,51.88
2022-11-18T05:05:04.580Z,52.21
2022-11-18T05:06:04.646Z,51.72
2022-11-18T05:07:04.650Z,56.24
2022-11-18T05:08:04.571Z,52.53
2022-11-18T05:09:04.550Z,53.50
2022-11-18T05:10:04.509Z,50.27
2022-11-18T05:11:04.492Z,53.17
2022-11-18T05:12:04.486Z,55.75
2022-11-18T05:13:04.484Z,50.60
2022-11-18T05:14:04.488Z,53.82
2022-11-18T05:15:04.479Z,56.56
2022-11-18T05:16:04.453Z,55.59
2022-11-18T05:17:04.446Z,51.24
2022-11-18T05:18:04.418Z,53.98
2022-11-18T05:19:04.429Z,57.04
2022-11-18T05:20:04.424Z,52.53
2022-11-18T05:21:04.396Z,53.82
2022-11-18T05:22:04.416Z,54.46
2022-11-18T05:23:04.356Z,54.14
2022-11-18T05:24:04.362Z,53.33
2022-11-18T05:25:04.376Z,56.40
2022-11-18T05:26:04.360Z,57.69
2022-11-18T05:27:04.327Z,58.81
2022-11-18T05:28:04.321Z,59.30
2022-11-18T05:29:04.337Z,56.72
2022-11-18T05:30:04.298Z,57.20
2022-11-18T05:31:04.294Z,54.30
2022-11-18T05:32:04.267Z,53.33
2022-11-18T05:33:04.289Z,56.40
2022-11-18T05:34:04.265Z,57.85
2022-11-18T05:35:04.266Z,60.42
2022-11-18T05:36:04.245Z,58.81
2022-11-18T05:37:04.265Z,57.69
2022-11-18T05:38:04.227Z,58.65
2022-11-18T05:39:04.192Z,59.30
2022-11-18T05:40:04.185Z,58.33
2022-11-18T05:41:04.173Z,59.14
2022-11-18T05:42:04.180Z,60.10
2022-11-18T05:43:04.182Z,59.94
2022-11-18T05:44:04.131Z,61.23
2022-11-18T05:45:04.136Z,60.91
2022-11-18T05:46:04.155Z,61.07
2022-11-18T05:47:04.112Z,61.39
2022-11-18T05:48:04.142Z,59.78
2022-11-18T05:49:04.091Z,60.26
2022-11-18T05:50:04.080Z,59.94
2022-11-18T05:51:04.072Z,59.46
2022-11-18T05:52:04.051Z,58.17
2022-11-18T05:53:04.091Z,60.10
2022-11-18T05:54:04.109Z,59.30
2022-11-18T05:55:04.007Z,60.75
2022-11-18T05:56:04.017Z,59.94
2022-11-18T05:57:04.060Z,62.04
2022-11-18T05:58:03.982Z,61.23
2022-11-18T05:59:03.965Z,60.10
2022-11-18T06:00:03.968Z,61.23
2022-11-18T06:01:03.940Z,61.87
2022-11-18T06:02:03.959Z,60.91
2022-11-18T06:03:03.965Z,60.75
2022-11-18T06:04:03.941Z,60.42
2022-11-18T06:05:03.923Z,58.81
2022-11-18T06:06:03.912Z,59.30
2022-11-18T06:07:03.935Z,56.40
2022-11-18T06:08:03.867Z,56.72
2022-11-18T06:09:03.861Z,57.85
2022-11-18T06:10:05.964Z,57.69
2022-11-18T06:11:04.825Z,57.85
2022-11-18T06:12:03.837Z,57.20
2022-11-18T06:13:03.817Z,59.62
2022-11-18T06:14:03.808Z,56.88
2022-11-18T06:15:03.777Z,56.24
2022-11-18T06:16:03.801Z,59.30
2022-11-18T06:17:03.778Z,54.95
2022-11-18T06:18:03.755Z,57.69
2022-11-18T06:19:03.775Z,58.01
2022-11-18T06:20:03.767Z,54.14
2022-11-18T06:21:03.743Z,55.91
2022-11-18T06:22:03.716Z,58.97
2022-11-18T06:23:03.718Z,58.49
2022-11-18T06:24:03.751Z,54.46
2022-11-18T06:25:35.677Z,53.98
2022-11-18T06:26:03.944Z,55.27
2022-11-18T06:27:03.735Z,55.91
2022-11-18T06:28:03.728Z,56.07
2022-11-18T06:29:03.653Z,53.17
2022-11-18T06:30:03.682Z,56.88
2022-11-18T06:31:03.636Z,54.95
2022-11-18T06:32:03.680Z,53.66
2022-11-18T06:33:03.662Z,57.85
2022-11-18T06:34:03.607Z,57.04
2022-11-18T06:35:03.674Z,54.79
2022-11-18T06:36:03.558Z,56.24
2022-11-18T06:37:03.599Z,57.69
2022-11-18T06:38:03.547Z,56.56
2022-11-18T06:39:03.562Z,56.56
2022-11-18T06:40:03.595Z,56.40
2022-11-18T06:41:03.530Z,55.27
2022-11-18T06:42:03.556Z,58.17
2022-11-18T06:43:03.567Z,56.07
2022-11-18T06:44:03.592Z,56.56
2022-11-18T06:45:03.546Z,58.17
2022-11-18T06:46:08.727Z,57.52
2022-11-18T06:47:05.519Z,55.91
2022-11-18T06:48:03.466Z,55.59
2022-11-18T06:49:03.460Z,56.56
2022-11-18T06:50:03.455Z,56.56
2022-11-18T06:51:03.431Z,55.91
2022-11-18T06:52:03.469Z,53.01
2022-11-18T06:53:03.424Z,56.88
2022-11-18T06:54:07.598Z,54.79
2022-11-18T06:55:05.435Z,54.95
2022-11-18T06:56:03.402Z,53.50
2022-11-18T06:57:03.437Z,50.60
2022-11-18T06:58:03.362Z,51.24
2022-11-18T06:59:03.371Z,55.75
2022-11-18T07:00:03.350Z,55.27
2022-11-18T07:01:03.492Z,54.14
2022-11-18T07:02:03.354Z,57.85
2022-11-18T07:03:03.373Z,53.98
2022-11-18T07:04:03.343Z,54.30
2022-11-18T07:05:03.273Z,50.76
2022-11-18T07:06:03.301Z,55.59
2022-11-18T07:07:03.278Z,54.14
2022-11-18T07:08:03.319Z,57.69
2022-11-18T07:09:03.248Z,52.53
2022-11-18T07:10:03.273Z,52.85
2022-11-18T07:11:03.300Z,49.79
2022-11-18T07:12:03.284Z,53.82
2022-11-18T07:13:03.224Z,57.20
2022-11-18T07:14:03.182Z,55.27
2022-11-18T07:15:03.198Z,55.59
2022-11-18T07:16:03.212Z,55.27
2022-11-18T07:17:03.223Z,56.40
2022-11-18T07:18:03.167Z,56.24
2022-11-18T07:19:03.168Z,58.17
2022-11-18T07:20:03.137Z,57.52
2022-11-18T07:21:03.147Z,56.72
2022-11-18T07:22:03.108Z,54.14
2022-11-18T07:23:03.098Z,56.07
2022-11-18T07:24:03.127Z,55.59
2022-11-18T07:25:03.048Z,54.46
2022-11-18T07:26:03.061Z,55.11
2022-11-18T07:27:03.095Z,55.11
2022-11-18T07:28:03.050Z,57.85
2022-11-18T07:29:03.068Z,56.07
2022-11-18T07:30:03.040Z,54.62
2022-11-18T07:31:03.011Z,52.85
2022-11-18T07:32:03.018Z,51.40
2022-11-18T07:33:03.031Z,56.56
2022-11-18T07:34:02.983Z,49.31
2022-11-18T07:35:02.965Z,55.59
2022-11-18T07:36:02.972Z,55.27
2022-11-18T07:37:02.944Z,56.56
2022-11-18T07:38:02.985Z,57.69
2022-11-18T07:39:02.906Z,53.66
2022-11-18T07:40:02.883Z,56.07
2022-11-18T07:41:02.900Z,55.91
2022-11-18T07:42:02.864Z,55.91
2022-11-18T07:43:02.943Z,52.85
2022-11-18T07:44:02.873Z,55.11
2022-11-18T07:45:02.869Z,53.33
2022-11-18T07:46:02.933Z,55.11
2022-11-18T07:47:02.826Z,56.07
2022-11-18T07:48:02.789Z,55.91
2022-11-18T07:49:02.869Z,56.24
2022-11-18T07:50:02.800Z,56.24
2022-11-18T07:51:02.810Z,54.62
2022-11-18T07:52:02.817Z,55.75
2022-11-18T07:53:02.734Z,55.43
2022-11-18T07:54:02.745Z,53.50
2022-11-18T07:55:02.734Z,53.17
2022-11-18T07:56:02.754Z,49.95
2022-11-18T07:57:02.707Z,54.46
2022-11-18T07:58:02.716Z,55.11
2022-11-18T07:59:02.702Z,50.11
2022-11-18T08:00:02.740Z,54.46
2022-11-18T08:01:02.758Z,50.92
2022-11-18T08:02:02.647Z,50.76
2022-11-18T08:03:02.731Z,54.14
2022-11-18T08:04:02.651Z,53.66
2022-11-18T08:05:02.722Z,53.98
2022-11-18T08:06:02.629Z,57.85
2022-11-18T08:07:03.664Z,53.33
2022-11-18T08:08:02.575Z,55.11
2022-11-18T08:09:02.593Z,51.88
2022-11-18T08:10:02.596Z,57.04
2022-11-18T08:11:02.567Z,57.04
2022-11-18T08:12:02.513Z,54.14
2022-11-18T08:13:02.582Z,52.05
2022-11-18T08:14:02.512Z,48.02
2022-11-18T08:15:02.501Z,55.75
2022-11-18T08:16:02.582Z,55.27
2022-11-18T08:17:02.481Z,54.95
2022-11-18T08:18:02.494Z,53.50
2022-11-18T08:19:02.483Z,53.01
2022-11-18T08:20:02.529Z,46.41
2022-11-18T08:21:02.450Z,46.73
2022-11-18T08:22:02.490Z,53.66
2022-11-18T08:23:02.465Z,52.21
2022-11-18T08:24:02.441Z,50.92
2022-11-18T08:25:02.478Z,56.56
2022-11-18T08:26:02.492Z,51.56
2022-11-18T08:27:02.498Z,55.43
2022-11-18T08:28:02.461Z,52.21
2022-11-18T08:29:02.459Z,52.85
2022-11-18T08:30:02.438Z,52.53
2022-11-18T08:31:02.441Z,51.88
2022-11-18T08:32:02.474Z,53.33
2022-11-18T08:33:02.368Z,51.56
2022-11-18T08:34:02.347Z,52.37
2022-11-18T08:35:06.647Z,52.69
2022-11-18T08:36:03.388Z,56.24
2022-11-18T08:37:02.422Z,54.46
2022-11-18T08:38:02.453Z,55.43
2022-11-18T08:39:02.384Z,51.88
2022-11-18T08:40:02.370Z,55.27
2022-11-18T08:41:02.452Z,53.66
2022-11-18T08:42:02.374Z,55.75
2022-11-18T08:43:02.357Z,56.40
2022-11-18T08:44:02.454Z,51.40
2022-11-18T08:45:02.374Z,54.14
2022-11-18T08:46:02.475Z,47.86
2022-11-18T08:47:02.294Z,55.59
2022-11-18T08:48:02.304Z,54.95
2022-11-18T08:49:02.355Z,54.62
2022-11-18T08:50:02.248Z,55.91
2022-11-18T08:51:02.367Z,52.05
2022-11-18T08:52:02.348Z,56.40
2022-11-18T08:53:02.259Z,55.91
2022-11-18T08:54:43.160Z,51.08
2022-11-18T08:55:02.600Z,56.88
2022-11-18T08:56:02.356Z,53.82
2022-11-18T08:57:02.307Z,55.91
2022-11-18T08:58:02.292Z,56.72
2022-11-18T08:59:02.284Z,51.56
2022-11-18T09:00:32.127Z,54.79
2022-11-18T09:01:02.510Z,53.33
2022-11-18T09:04:24.820Z,57.20
2022-11-18T09:05:24.606Z,54.95
2022-11-18T09:06:24.472Z,54.79
2022-11-18T09:07:24.603Z,54.14
2022-11-18T09:08:24.485Z,54.14
2022-11-18T09:09:24.567Z,51.08
2022-11-18T09:10:24.494Z,52.05
2022-11-18T09:11:24.516Z,54.14
2022-11-18T09:12:24.446Z,51.24
2022-11-18T09:13:53.346Z,56.56
2022-11-18T09:15:12.555Z,51.88
2022-11-18T09:15:26.498Z,54.79
2022-11-18T09:16:27.956Z,52.53
2022-11-18T09:18:05.456Z,54.62
2022-11-18T09:18:25.045Z,56.72
2022-11-18T09:19:46.271Z,53.82
2022-11-18T09:20:26.431Z,54.14
2022-11-18T09:24:38.302Z,51.56
2022-11-18T09:25:38.230Z,56.88
2022-11-18T09:26:37.786Z,56.88
2022-11-18T09:27:37.906Z,55.75
2022-11-18T09:28:37.762Z,56.88
2022-11-18T09:30:12.138Z,53.01
2022-11-18T09:30:38.384Z,56.56
2022-11-18T09:32:17.432Z,54.79
2022-11-18T09:32:38.287Z,57.69
2022-11-18T09:34:17.179Z,54.30
2022-11-18T09:34:38.056Z,55.27
2022-11-18T09:35:38.025Z,54.14
2022-11-18T09:36:37.853Z,55.27
2022-11-18T09:37:38.029Z,56.24
2022-11-18T09:38:38.282Z,56.24
2022-11-18T09:39:38.949Z,53.01
2022-11-18T09:40:37.655Z,53.98
2022-11-18T09:41:37.756Z,55.27
2022-11-18T09:43:23.973Z,57.69
2022-11-18T09:43:38.085Z,57.20
2022-11-18T09:45:15.264Z,55.43
2022-11-18T09:45:38.103Z,56.72
2022-11-18T09:46:38.042Z,55.59
2022-11-18T09:48:19.557Z,57.04
2022-11-18T09:48:38.403Z,57.85
2022-11-18T09:49:37.878Z,54.14
2022-11-18T09:51:18.476Z,55.59
2022-11-18T09:52:12.415Z,57.36
2022-11-18T09:52:38.313Z,54.95
2022-11-18T09:54:14.275Z,55.91
2022-11-18T09:54:38.315Z,54.62
2022-11-18T09:55:37.724Z,58.49
2022-11-18T09:56:37.957Z,53.82
2022-11-18T09:57:37.568Z,48.34
2022-11-18T09:58:37.607Z,55.11
2022-11-18T10:00:17.208Z,56.72
2022-11-18T10:00:38.086Z,57.04
2022-11-18T10:02:16.463Z,53.98
2022-11-18T10:02:38.587Z,58.81
2022-11-18T10:03:38.038Z,54.46
2022-11-18T10:04:37.560Z,53.17
2022-11-18T10:05:38.438Z,56.40
2022-11-18T10:06:37.484Z,54.62
2022-11-18T10:07:37.682Z,54.62
2022-11-18T10:08:37.569Z,57.20
2022-11-18T10:09:37.900Z,57.52
2022-11-18T10:10:48.016Z,56.72
2022-11-18T10:11:41.434Z,54.95
2022-11-18T10:12:38.588Z,55.91
2022-11-18T10:13:37.494Z,50.43
2022-11-18T10:15:15.881Z,56.07
2022-11-18T10:15:38.159Z,60.91
2022-11-18T10:16:37.567Z,50.27
2022-11-18T10:17:38.392Z,55.59
2022-11-18T10:18:59.205Z,54.62
2022-11-18T10:19:39.907Z,53.66
2022-11-18T10:24:53.876Z,50.43
2022-11-18T10:28:17.131Z,55.27
2022-11-18T10:29:05.313Z,56.88
2022-11-18T10:30:36.454Z,57.20
2022-11-18T10:31:05.457Z,53.33
2022-11-18T10:34:26.334Z,56.40
2022-11-18T10:35:25.586Z,57.20
2022-11-18T10:36:25.343Z,55.11
2022-11-18T10:40:04.141Z,56.56
2022-11-18T10:41:03.917Z,56.88
2022-11-18T10:42:03.816Z,56.88
2022-11-18T10:45:39.716Z,56.07
2022-11-18T10:46:39.482Z,55.11
2022-11-18T10:48:04.985Z,56.24
2022-11-18T10:48:40.147Z,54.30
2022-11-18T10:49:38.870Z,57.69
2022-11-18T10:50:39.016Z,54.79
2022-11-18T10:51:38.872Z,57.69
2022-11-18T10:52:38.863Z,58.97
2022-11-18T10:53:38.870Z,59.14
2022-11-18T10:54:38.890Z,58.17
2022-11-18T10:55:39.023Z,57.04
2022-11-18T10:56:38.864Z,56.24
2022-11-18T10:57:38.852Z,58.49
2022-11-18T10:58:39.354Z,55.43
2022-11-18T10:59:38.850Z,56.56
2022-11-18T11:00:38.873Z,54.79
2022-11-18T11:01:38.809Z,58.81
2022-11-18T11:03:10.606Z,58.81
2022-11-18T11:03:38.605Z,57.69
2022-11-18T11:04:38.628Z,57.85
2022-11-18T11:05:38.607Z,55.43
2022-11-18T11:06:38.613Z,55.43
2022-11-18T11:07:38.695Z,55.59
2022-11-18T11:08:38.589Z,58.81
2022-11-18T11:09:39.580Z,58.33
2022-11-18T11:10:38.539Z,58.33
2022-11-18T11:11:38.558Z,58.65
2022-11-18T11:12:38.511Z,53.17
2022-11-18T11:13:38.510Z,58.49
2022-11-18T11:14:38.520Z,56.72
2022-11-18T11:15:38.481Z,56.88
2022-11-18T11:16:38.460Z,57.52
2022-11-18T11:17:38.480Z,58.65
2022-11-18T11:18:38.458Z,59.62
2022-11-18T11:19:38.451Z,57.85
2022-11-18T11:20:38.447Z,56.07
2022-11-18T11:21:38.419Z,56.56
2022-11-18T11:22:38.441Z,56.07
2022-11-18T11:23:38.391Z,55.43
2022-11-18T11:24:38.393Z,55.91
2022-11-18T11:28:40.357Z,52.53
2022-11-18T11:29:38.332Z,54.14
2022-11-18T11:30:40.855Z,54.46
2022-11-18T11:31:39.360Z,55.11
2022-11-18T11:32:38.332Z,55.43
2022-11-18T11:33:38.318Z,53.98
2022-11-18T11:34:38.283Z,54.62
2022-11-18T11:35:38.267Z,55.27
2022-11-18T11:36:38.277Z,49.47
2022-11-18T11:37:38.270Z,51.08
2022-11-18T11:38:38.261Z,55.43
2022-11-18T11:39:38.221Z,55.27
2022-11-18T11:40:38.190Z,56.56
2022-11-18T11:41:38.223Z,56.56
2022-11-18T11:42:38.248Z,54.95
2022-11-18T11:43:38.202Z,54.62
2022-11-18T11:44:38.201Z,52.69
2022-11-18T11:45:38.155Z,55.27
2022-11-18T11:46:38.172Z,56.40
2022-11-18T11:47:38.141Z,56.56
2022-11-18T11:48:38.131Z,56.40
2022-11-18T11:49:38.103Z,56.56
2022-11-18T11:50:39.097Z,55.43
2022-11-18T11:51:38.123Z,57.69
2022-11-18T11:52:38.070Z,57.20
2022-11-18T11:53:38.092Z,56.88
2022-11-18T11:54:38.087Z,57.36
2022-11-18T11:55:38.086Z,54.46
2022-11-18T11:56:38.029Z,56.24
2022-11-18T11:57:38.024Z,54.79
2022-11-18T11:58:38.024Z,57.52
2022-11-18T11:59:38.031Z,57.20
2022-11-18T12:00:38.040Z,55.11
2022-11-18T12:01:37.968Z,56.40
2022-11-18T12:02:38.045Z,54.79
2022-11-18T12:03:37.962Z,56.40
2022-11-18T12:04:37.956Z,56.56
2022-11-18T12:05:37.970Z,55.91
2022-11-18T12:06:37.954Z,53.17
2022-11-18T12:07:38.026Z,56.40
2022-11-18T12:08:37.946Z,55.59
2022-11-18T12:09:37.903Z,57.20
2022-11-18T12:10:37.910Z,56.56
2022-11-18T12:11:37.889Z,57.52
2022-11-18T12:12:37.910Z,58.33
2022-11-18T12:13:37.863Z,58.01
2022-11-18T12:14:40.006Z,57.85
2022-11-18T12:15:38.859Z,58.33
2022-11-18T12:16:37.834Z,59.78
2022-11-18T12:17:37.830Z,57.85
2022-11-18T12:18:37.826Z,59.46
2022-11-18T12:19:37.786Z,58.97
2022-11-18T12:20:37.800Z,59.62
2022-11-18T12:21:37.760Z,57.52
2022-11-18T12:22:37.756Z,59.30
2022-11-18T12:23:37.713Z,59.94
2022-11-18T12:24:37.750Z,57.20
2022-11-18T12:25:37.719Z,58.17
2022-11-18T12:26:37.714Z,58.01
2022-11-18T12:27:37.733Z,56.72
2022-11-18T12:28:37.714Z,59.30
2022-11-18T12:29:37.684Z,58.97
2022-11-18T12:30:37.637Z,58.65
2022-11-18T12:31:37.639Z,57.20
2022-11-18T12:32:37.684Z,58.49
2022-11-18T12:33:37.619Z,59.78
2022-11-18T12:34:37.583Z,60.26
2022-11-18T12:35:37.593Z,58.65
2022-11-18T12:36:37.610Z,60.26
2022-11-18T12:37:37.618Z,60.75
2022-11-18T12:38:37.574Z,60.75
2022-11-18T12:39:37.577Z,58.01
2022-11-18T12:40:37.530Z,59.62
2022-11-18T12:41:37.551Z,59.14
2022-11-18T12:42:37.524Z,58.97
2022-11-18T12:43:37.527Z,59.30
2022-11-18T12:44:37.509Z,59.30
2022-11-18T12:45:37.492Z,59.62
2022-11-18T12:46:40.169Z,59.94
2022-11-18T12:47:38.445Z,60.26
2022-11-18T12:48:37.477Z,58.17
2022-11-18T12:49:37.464Z,58.65
2022-11-18T12:50:37.423Z,59.78
2022-11-18T12:51:37.436Z,61.07
2022-11-18T12:52:37.430Z,59.78
2022-11-18T12:53:37.416Z,60.10
2022-11-18T12:54:37.362Z,57.69
2022-11-18T12:55:37.397Z,61.07
2022-11-18T12:56:37.376Z,60.59
2022-11-18T12:57:37.434Z,59.14
2022-11-18T12:58:37.370Z,57.85
2022-11-18T12:59:37.357Z,57.85
2022-11-18T13:00:37.344Z,59.78
2022-11-18T13:01:37.332Z,60.59
2022-11-18T13:02:37.505Z,60.59
2022-11-18T13:03:37.275Z,59.94
2022-11-18T13:04:43.031Z,61.87
2022-11-18T13:05:39.277Z,60.75
2022-11-18T13:06:37.247Z,59.78
2022-11-18T13:07:37.358Z,60.26
2022-11-18T13:08:37.234Z,60.59
2022-11-18T13:09:37.235Z,62.20
2022-11-18T13:10:37.213Z,61.39
2022-11-18T13:11:37.284Z,64.13
2022-11-18T13:12:37.212Z,62.20
2022-11-18T13:13:37.213Z,59.78
2022-11-18T13:14:37.211Z,62.84